sensor_id;sensor_type;location;lat;lon;timestamp;pressure;altitude;pressure_sealevel;temperature;humidity
59419;BME280;45224;50.904;6.038;2023-03-04T00:01:25;100784.91;;;2.31;84.00
59419;BME280;45224;50.904;6.038;2023-03-04T00:02:55;100778.53;;;2.23;84.65
59419;BME280;45224;50.904;6.038;2023-03-04T00:04:26;100777.09;;;2.28;84.70
59419;BME280;45224;50.904;6.038;2023-03-04T00:05:56;100784.75;;;2.28;84.48
59419;BME280;45224;50.904;6.038;2023-03-04T00:07:27;100786.44;;;2.28;84.58
59419;BME280;45224;50.904;6.038;2023-03-04T00:08:58;100789.63;;;2.24;84.81
59419;BME280;45224;50.904;6.038;2023-03-04T00:10:28;100797.78;;;2.16;85.46
59419;BME280;45224;50.904;6.038;2023-03-04T00:11:59;100787.66;;;2.01;85.66
59419;BME280;45224;50.904;6.038;2023-03-04T00:13:29;100780.81;;;2.00;85.81
59419;BME280;45224;50.904;6.038;2023-03-04T00:15:00;100797.41;;;2.09;85.54
59419;BME280;45224;50.904;6.038;2023-03-04T00:16:30;100792.91;;;2.05;85.88
59419;BME280;45224;50.904;6.038;2023-03-04T00:18:01;100784.31;;;2.03;86.15
59419;BME280;45224;50.904;6.038;2023-03-04T00:19:31;100786.38;;;2.10;85.96
59419;BME280;45224;50.904;6.038;2023-03-04T00:21:02;100790.91;;;2.15;84.72
59419;BME280;45224;50.904;6.038;2023-03-04T00:22:33;100790.06;;;2.15;85.48
59419;BME280;45224;50.904;6.038;2023-03-04T00:24:03;100791.78;;;2.16;85.16
59419;BME280;45224;50.904;6.038;2023-03-04T00:25:34;100788.59;;;2.20;85.26
59419;BME280;45224;50.904;6.038;2023-03-04T00:27:04;100784.28;;;2.19;85.45
59419;BME280;45224;50.904;6.038;2023-03-04T00:28:35;100779.94;;;2.16;85.16
59419;BME280;45224;50.904;6.038;2023-03-04T00:30:06;100783.63;;;2.05;86.18
59419;BME280;45224;50.904;6.038;2023-03-04T00:31:37;100781.09;;;2.07;85.25
59419;BME280;45224;50.904;6.038;2023-03-04T00:33:07;100786.38;;;2.10;85.55
59419;BME280;45224;50.904;6.038;2023-03-04T00:34:38;100784.78;;;2.12;85.56
59419;BME280;45224;50.904;6.038;2023-03-04T00:36:10;100778.94;;;2.14;85.46
59419;BME280;45224;50.904;6.038;2023-03-04T00:37:40;100775.28;;;2.09;85.87
59419;BME280;45224;50.904;6.038;2023-03-04T00:39:12;100775.59;;;2.15;85.89
59419;BME280;45224;50.904;6.038;2023-03-04T00:40:42;100773.13;;;2.17;85.16
59419;BME280;45224;50.904;6.038;2023-03-04T00:42:13;100773.13;;;2.17;85.46
59419;BME280;45224;50.904;6.038;2023-03-04T00:43:43;100771.69;;;2.22;85.09
59419;BME280;45224;50.904;6.038;2023-03-04T00:45:14;100775.31;;;2.27;84.51
59419;BME280;45224;50.904;6.038;2023-03-04T00:46:44;100773.44;;;2.23;85.43
59419;BME280;45224;50.904;6.038;2023-03-04T00:48:15;100766.34;;;2.17;85.68
59419;BME280;45224;50.904;6.038;2023-03-04T00:49:45;100764.66;;;2.18;85.34
59419;BME280;45224;50.904;6.038;2023-03-04T00:51:16;100770.81;;;2.22;85.70
59419;BME280;45224;50.904;6.038;2023-03-04T00:52:46;100767.44;;;2.23;85.41
59419;BME280;45224;50.904;6.038;2023-03-04T00:54:17;100770.00;;;2.23;84.92
59419;BME280;45224;50.904;6.038;2023-03-04T00:55:47;100771.84;;;2.25;84.94
59419;BME280;45224;50.904;6.038;2023-03-04T00:57:18;100772.00;;;2.28;85.54
59419;BME280;45224;50.904;6.038;2023-03-04T00:58:48;100765.72;;;2.22;86.04
59419;BME280;45224;50.904;6.038;2023-03-04T01:00:19;100763.25;;;2.23;85.63
59419;BME280;45224;50.904;6.038;2023-03-04T01:01:50;100768.34;;;2.23;85.40
59419;BME280;45224;50.904;6.038;2023-03-04T01:03:21;100750.50;;;2.07;85.91
59419;BME280;45224;50.904;6.038;2023-03-04T01:04:52;100769.06;;;2.21;85.97
59419;BME280;45224;50.904;6.038;2023-03-04T01:06:23;100766.41;;;2.19;85.56
59419;BME280;45224;50.904;6.038;2023-03-04T01:07:53;100757.81;;;2.17;86.12
59419;BME280;45224;50.904;6.038;2023-03-04T01:09:24;100762.06;;;2.16;86.24
59419;BME280;45224;50.904;6.038;2023-03-04T01:10:56;100761.47;;;2.22;86.06
59419;BME280;45224;50.904;6.038;2023-03-04T01:12:26;100758.13;;;2.23;86.03
59419;BME280;45224;50.904;6.038;2023-03-04T01:13:57;100757.53;;;2.11;86.67
59419;BME280;45224;50.904;6.038;2023-03-04T01:15:28;100760.47;;;2.18;86.49
59419;BME280;45224;50.904;6.038;2023-03-04T01:16:58;100749.72;;;2.08;87.26
59419;BME280;45224;50.904;6.038;2023-03-04T01:18:29;100762.09;;;2.18;86.28
59419;BME280;45224;50.904;6.038;2023-03-04T01:19:59;100759.56;;;2.18;86.41
59419;BME280;45224;50.904;6.038;2023-03-04T01:21:30;100755.28;;;2.17;86.51
59419;BME280;45224;50.904;6.038;2023-03-04T01:23:00;100754.34;;;2.15;86.95
59419;BME280;45224;50.904;6.038;2023-03-04T01:24:31;100761.16;;;2.16;86.63
59419;BME280;45224;50.904;6.038;2023-03-04T01:26:02;100746.94;;;2.21;86.61
59419;BME280;45224;50.904;6.038;2023-03-04T01:27:33;100753.75;;;2.21;86.54
59419;BME280;45224;50.904;6.038;2023-03-04T01:29:03;100754.34;;;2.15;86.73
59419;BME280;45224;50.904;6.038;2023-03-04T01:30:34;100757.53;;;2.29;86.60
59419;BME280;45224;50.904;6.038;2023-03-04T01:32:04;100750.13;;;2.33;85.51
59419;BME280;45224;50.904;6.038;2023-03-04T01:33:35;100749.47;;;2.37;86.00
59419;BME280;45224;50.904;6.038;2023-03-04T01:35:07;100747.03;;;2.41;85.21
59419;BME280;45224;50.904;6.038;2023-03-04T01:36:37;100740.22;;;2.40;85.46
59419;BME280;45224;50.904;6.038;2023-03-04T01:38:08;100745.38;;;2.41;85.23
59419;BME280;45224;50.904;6.038;2023-03-04T01:39:39;100732.56;;;2.40;85.52
59419;BME280;45224;50.904;6.038;2023-03-04T01:41:11;100742.09;;;2.44;85.49
59419;BME280;45224;50.904;6.038;2023-03-04T01:42:42;100743.06;;;2.46;85.03
59419;BME280;45224;50.904;6.038;2023-03-04T01:44:13;100745.69;;;2.47;85.54
59419;BME280;45224;50.904;6.038;2023-03-04T01:45:46;100746.41;;;2.45;85.07
59419;BME280;45224;50.904;6.038;2023-03-04T01:47:18;100741.44;;;2.48;85.01
59419;BME280;45224;50.904;6.038;2023-03-04T01:48:50;100739.59;;;2.45;85.30
59419;BME280;45224;50.904;6.038;2023-03-04T01:50:31;100742.25;;;2.47;84.77
59419;BME280;45224;50.904;6.038;2023-03-04T01:52:02;100730.16;;;2.43;85.90
59419;BME280;45224;50.904;6.038;2023-03-04T01:53:33;100732.69;;;2.43;85.62
59419;BME280;45224;50.904;6.038;2023-03-04T01:55:10;100736.28;;;2.46;85.55
59419;BME280;45224;50.904;6.038;2023-03-04T01:56:45;100724.53;;;2.50;84.74
59419;BME280;45224;50.904;6.038;2023-03-04T01:58:16;100730.44;;;2.49;85.57
59419;BME280;45224;50.904;6.038;2023-03-04T02:00:10;100726.34;;;2.52;85.01
59419;BME280;45224;50.904;6.038;2023-03-04T02:01:53;100725.59;;;2.55;84.76
59419;BME280;45224;50.904;6.038;2023-03-04T02:03:24;100729.13;;;2.57;85.07
59419;BME280;45224;50.904;6.038;2023-03-04T02:04:54;100717.94;;;2.55;85.07
59419;BME280;45224;50.904;6.038;2023-03-04T02:06:25;100713.81;;;2.57;84.91
59419;BME280;45224;50.904;6.038;2023-03-04T02:07:57;100724.03;;;2.57;84.82
59419;BME280;45224;50.904;6.038;2023-03-04T02:09:30;100723.34;;;2.61;84.93
59419;BME280;45224;50.904;6.038;2023-03-04T02:11:01;100718.31;;;2.63;84.82
59419;BME280;45224;50.904;6.038;2023-03-04T02:12:31;100717.44;;;2.62;84.12
59419;BME280;45224;50.904;6.038;2023-03-04T02:14:02;100709.94;;;2.65;84.67
59419;BME280;45224;50.904;6.038;2023-03-04T02:15:33;100698.78;;;2.63;84.17
59419;BME280;45224;50.904;6.038;2023-03-04T02:17:10;100704.81;;;2.65;84.76
59419;BME280;45224;50.904;6.038;2023-03-04T02:18:41;100704.75;;;2.64;84.05
59419;BME280;45224;50.904;6.038;2023-03-04T02:22:01;100705.63;;;2.64;84.73
59419;BME280;45224;50.904;6.038;2023-03-04T02:25:34;100707.59;;;2.70;83.90
59419;BME280;45224;50.904;6.038;2023-03-04T02:27:05;100705.19;;;2.73;83.92
59419;BME280;45224;50.904;6.038;2023-03-04T02:28:36;100699.13;;;2.71;83.99
59419;BME280;45224;50.904;6.038;2023-03-04T02:30:08;100703.56;;;2.75;83.50
59419;BME280;45224;50.904;6.038;2023-03-04T02:31:42;100702.81;;;2.78;83.67
59419;BME280;45224;50.904;6.038;2023-03-04T02:33:17;100701.88;;;2.76;84.24
59419;BME280;45224;50.904;6.038;2023-03-04T02:34:49;100695.06;;;2.74;84.19
59419;BME280;45224;50.904;6.038;2023-03-04T02:36:21;100694.09;;;2.72;84.23
59419;BME280;45224;50.904;6.038;2023-03-04T02:37:52;100693.44;;;2.77;83.83
59419;BME280;45224;50.904;6.038;2023-03-04T02:39:34;100701.09;;;2.77;83.81
59419;BME280;45224;50.904;6.038;2023-03-04T02:41:05;100688.47;;;2.80;83.76
59419;BME280;45224;50.904;6.038;2023-03-04T02:42:38;100689.25;;;2.79;83.70
59419;BME280;45224;50.904;6.038;2023-03-04T02:44:17;100690.72;;;2.73;84.49
59419;BME280;45224;50.904;6.038;2023-03-04T02:45:49;100691.03;;;2.80;83.59
59419;BME280;45224;50.904;6.038;2023-03-04T02:47:20;100686.41;;;2.72;83.92
59419;BME280;45224;50.904;6.038;2023-03-04T02:48:54;100698.63;;;2.78;84.06
59419;BME280;45224;50.904;6.038;2023-03-04T02:50:27;100691.81;;;2.79;83.85
59419;BME280;45224;50.904;6.038;2023-03-04T02:52:08;100692.91;;;2.84;83.14
59419;BME280;45224;50.904;6.038;2023-03-04T02:53:39;100689.41;;;2.82;83.51
59419;BME280;45224;50.904;6.038;2023-03-04T02:55:10;100691.41;;;2.89;83.49
59419;BME280;45224;50.904;6.038;2023-03-04T02:56:45;100688.06;;;2.90;82.80
59419;BME280;45224;50.904;6.038;2023-03-04T02:58:17;100686.38;;;2.90;83.38
59419;BME280;45224;50.904;6.038;2023-03-04T02:59:48;100691.50;;;2.90;82.83
59419;BME280;45224;50.904;6.038;2023-03-04T03:01:27;100684.56;;;2.88;83.60
59419;BME280;45224;50.904;6.038;2023-03-04T03:02:58;100688.88;;;2.89;83.28
59419;BME280;45224;50.904;6.038;2023-03-04T03:04:29;100688.22;;;2.93;82.59
59419;BME280;45224;50.904;6.038;2023-03-04T03:06:00;100684.88;;;2.94;83.04
59419;BME280;45224;50.904;6.038;2023-03-04T03:07:31;100684.88;;;2.94;82.87
59419;BME280;45224;50.904;6.038;2023-03-04T03:09:02;100682.97;;;2.90;83.36
59419;BME280;45224;50.904;6.038;2023-03-04T03:10:33;100685.22;;;2.84;83.54
59419;BME280;45224;50.904;6.038;2023-03-04T03:12:03;100686.38;;;2.90;83.40
59419;BME280;45224;50.904;6.038;2023-03-04T03:13:36;100670.81;;;2.84;83.02
59419;BME280;45224;50.904;6.038;2023-03-04T03:15:07;100678.78;;;2.92;82.50
59419;BME280;45224;50.904;6.038;2023-03-04T03:16:37;100679.75;;;2.94;83.26
59419;BME280;45224;50.904;6.038;2023-03-04T03:18:09;100678.00;;;2.93;83.20
59419;BME280;45224;50.904;6.038;2023-03-04T03:19:40;100666.91;;;2.92;83.69
59419;BME280;45224;50.904;6.038;2023-03-04T03:21:11;100668.56;;;2.92;82.75
59419;BME280;45224;50.904;6.038;2023-03-04T03:22:42;100673.03;;;2.96;83.01
59419;BME280;45224;50.904;6.038;2023-03-04T03:24:13;100668.72;;;2.95;83.02
59419;BME280;45224;50.904;6.038;2023-03-04T03:25:44;100673.97;;;2.98;83.55
59419;BME280;45224;50.904;6.038;2023-03-04T03:27:15;100671.41;;;2.98;83.65
59419;BME280;45224;50.904;6.038;2023-03-04T03:28:45;100669.69;;;2.97;83.09
59419;BME280;45224;50.904;6.038;2023-03-04T03:30:16;100658.41;;;2.93;83.09
59419;BME280;45224;50.904;6.038;2023-03-04T03:31:47;100662.81;;;2.96;83.53
59419;BME280;45224;50.904;6.038;2023-03-04T03:33:17;100657.69;;;2.96;82.75
59419;BME280;45224;50.904;6.038;2023-03-04T03:34:48;100661.13;;;2.97;83.39
59419;BME280;45224;50.904;6.038;2023-03-04T03:36:18;100655.94;;;2.95;83.24
59419;BME280;45224;50.904;6.038;2023-03-04T03:37:49;100661.19;;;2.98;83.59
59419;BME280;45224;50.904;6.038;2023-03-04T03:39:19;100659.50;;;2.99;83.16
59419;BME280;45224;50.904;6.038;2023-03-04T03:40:50;100654.34;;;2.97;83.33
59419;BME280;45224;50.904;6.038;2023-03-04T03:42:20;100656.91;;;2.97;83.55
59419;BME280;45224;50.904;6.038;2023-03-04T03:43:51;100656.06;;;2.98;83.15
59419;BME280;45224;50.904;6.038;2023-03-04T03:45:21;100662.94;;;2.99;83.37
59419;BME280;45224;50.904;6.038;2023-03-04T03:46:52;100662.13;;;3.00;82.95
59419;BME280;45224;50.904;6.038;2023-03-04T03:48:22;100662.19;;;3.02;82.89
59419;BME280;45224;50.904;6.038;2023-03-04T03:49:53;100659.69;;;3.03;83.66
59419;BME280;45224;50.904;6.038;2023-03-04T03:51:23;100659.69;;;3.03;83.30
59419;BME280;45224;50.904;6.038;2023-03-04T03:52:54;100653.72;;;3.03;82.80
59419;BME280;45224;50.904;6.038;2023-03-04T03:54:24;100663.22;;;3.05;82.86
59419;BME280;45224;50.904;6.038;2023-03-04T03:55:55;100658.97;;;3.06;82.54
59419;BME280;45224;50.904;6.038;2023-03-04T03:57:26;100659.03;;;3.07;82.61
59419;BME280;45224;50.904;6.038;2023-03-04T03:58:57;100653.25;;;3.11;82.16
59419;BME280;45224;50.904;6.038;2023-03-04T04:00:27;100662.59;;;3.11;82.62
59419;BME280;45224;50.904;6.038;2023-03-04T04:01:58;100658.34;;;3.11;82.54
59419;BME280;45224;50.904;6.038;2023-03-04T04:03:28;100658.44;;;3.13;82.59
59419;BME280;45224;50.904;6.038;2023-03-04T04:05:00;100663.38;;;3.08;83.21
59419;BME280;45224;50.904;6.038;2023-03-04T04:06:30;100664.03;;;3.04;83.32
59419;BME280;45224;50.904;6.038;2023-03-04T04:08:00;100658.34;;;3.11;82.81
59419;BME280;45224;50.904;6.038;2023-03-04T04:09:31;100658.28;;;3.10;82.26
59419;BME280;45224;50.904;6.038;2023-03-04T04:11:02;100667.13;;;3.17;81.97
59419;BME280;45224;50.904;6.038;2023-03-04T04:12:33;100663.75;;;3.18;82.50
59419;BME280;45224;50.904;6.038;2023-03-04T04:14:03;100666.16;;;3.15;82.93
59419;BME280;45224;50.904;6.038;2023-03-04T04:15:34;100663.75;;;3.18;82.74
59419;BME280;45224;50.904;6.038;2023-03-04T04:17:05;100664.63;;;3.18;82.55
59419;BME280;45224;50.904;6.038;2023-03-04T04:18:36;100664.38;;;3.12;82.61
59419;BME280;45224;50.904;6.038;2023-03-04T04:20:08;100662.81;;;3.16;82.67
59419;BME280;45224;50.904;6.038;2023-03-04T04:21:38;100662.00;;;3.17;82.68
59419;BME280;45224;50.904;6.038;2023-03-04T04:23:10;100662.94;;;3.19;82.52
59419;BME280;45224;50.904;6.038;2023-03-04T04:24:40;100665.44;;;3.17;82.66
59419;BME280;45224;50.904;6.038;2023-03-04T04:26:11;100663.69;;;3.16;82.41
59419;BME280;45224;50.904;6.038;2023-03-04T04:27:41;100665.38;;;3.16;82.86
59419;BME280;45224;50.904;6.038;2023-03-04T04:29:13;100650.03;;;3.16;82.75
59419;BME280;45224;50.904;6.038;2023-03-04T04:30:44;100665.63;;;3.22;82.01
59419;BME280;45224;50.904;6.038;2023-03-04T04:32:14;100660.53;;;3.22;82.48
59419;BME280;45224;50.904;6.038;2023-03-04T04:33:45;100660.13;;;3.13;82.67
59419;BME280;45224;50.904;6.038;2023-03-04T04:35:16;100651.78;;;3.17;82.49
59419;BME280;45224;50.904;6.038;2023-03-04T04:36:46;100651.78;;;3.17;82.14
59419;BME280;45224;50.904;6.038;2023-03-04T04:38:17;100658.63;;;3.18;82.61
59419;BME280;45224;50.904;6.038;2023-03-04T04:39:47;100648.13;;;3.11;82.44
59419;BME280;45224;50.904;6.038;2023-03-04T04:41:25;100655.16;;;3.16;82.22
59419;BME280;45224;50.904;6.038;2023-03-04T04:42:57;100655.41;;;3.22;82.33
59419;BME280;45224;50.904;6.038;2023-03-04T04:44:28;100663.22;;;3.25;82.20
59419;BME280;45224;50.904;6.038;2023-03-04T04:45:58;100654.53;;;3.21;82.33
59419;BME280;45224;50.904;6.038;2023-03-04T04:47:29;100664.03;;;3.24;82.68
59419;BME280;45224;50.904;6.038;2023-03-04T04:49:00;100664.16;;;3.27;82.29
59419;BME280;45224;50.904;6.038;2023-03-04T04:50:30;100663.22;;;3.25;82.34
59419;BME280;45224;50.904;6.038;2023-03-04T04:52:01;100659.19;;;3.30;82.50
59419;BME280;45224;50.904;6.038;2023-03-04T04:53:31;100662.53;;;3.29;82.12
59419;BME280;45224;50.904;6.038;2023-03-04T04:55:02;100661.72;;;3.30;82.52
59419;BME280;45224;50.904;6.038;2023-03-04T04:56:33;100663.50;;;3.31;82.36
59419;BME280;45224;50.904;6.038;2023-03-04T04:58:05;100665.91;;;3.28;82.39
59419;BME280;45224;50.904;6.038;2023-03-04T04:59:36;100671.16;;;3.31;82.44
59419;BME280;45224;50.904;6.038;2023-03-04T05:01:07;100675.44;;;3.32;82.87
59419;BME280;45224;50.904;6.038;2023-03-04T05:02:38;100668.63;;;3.33;82.39
59419;BME280;45224;50.904;6.038;2023-03-04T05:04:08;100671.25;;;3.34;82.61
59419;BME280;45224;50.904;6.038;2023-03-04T05:05:39;100676.38;;;3.34;82.29
59419;BME280;45224;50.904;6.038;2023-03-04T05:07:10;100674.78;;;3.36;82.30
59419;BME280;45224;50.904;6.038;2023-03-04T05:08:40;100671.41;;;3.37;81.85
59419;BME280;45224;50.904;6.038;2023-03-04T05:10:11;100679.22;;;3.40;82.35
59419;BME280;45224;50.904;6.038;2023-03-04T05:11:41;100679.91;;;3.36;82.98
59419;BME280;45224;50.904;6.038;2023-03-04T05:13:11;100679.91;;;3.36;82.96
59419;BME280;45224;50.904;6.038;2023-03-04T05:14:42;100679.06;;;3.37;82.54
59419;BME280;45224;50.904;6.038;2023-03-04T05:16:14;100672.88;;;3.32;82.35
59419;BME280;45224;50.904;6.038;2023-03-04T05:17:45;100677.22;;;3.33;82.95
59419;BME280;45224;50.904;6.038;2023-03-04T05:19:15;100678.13;;;3.35;82.17
59419;BME280;45224;50.904;6.038;2023-03-04T05:20:52;100677.13;;;3.32;83.05
59419;BME280;45224;50.904;6.038;2023-03-04T05:22:23;100674.50;;;3.30;82.57
59419;BME280;45224;50.904;6.038;2023-03-04T05:23:53;100671.16;;;3.31;82.61
59419;BME280;45224;50.904;6.038;2023-03-04T05:25:24;100674.50;;;3.30;83.25
59419;BME280;45224;50.904;6.038;2023-03-04T05:26:54;100670.88;;;3.25;83.61
59419;BME280;45224;50.904;6.038;2023-03-04T05:28:25;100669.25;;;3.27;83.32
59419;BME280;45224;50.904;6.038;2023-03-04T05:29:56;100671.03;;;3.28;83.60
59419;BME280;45224;50.904;6.038;2023-03-04T05:31:29;100671.16;;;3.31;82.98
59419;BME280;45224;50.904;6.038;2023-03-04T05:33:00;100666.63;;;3.25;83.33
59419;BME280;45224;50.904;6.038;2023-03-04T05:34:30;100676.28;;;3.31;82.96
59419;BME280;45224;50.904;6.038;2023-03-04T05:36:02;100666.78;;;3.28;83.36
59419;BME280;45224;50.904;6.038;2023-03-04T05:37:33;100675.44;;;3.32;83.25
59419;BME280;45224;50.904;6.038;2023-03-04T05:39:04;100666.84;;;3.30;82.51
59419;BME280;45224;50.904;6.038;2023-03-04T05:40:34;100670.88;;;3.25;83.81
59419;BME280;45224;50.904;6.038;2023-03-04T05:42:05;100672.88;;;3.32;83.29
59419;BME280;45224;50.904;6.038;2023-03-04T05:43:36;100674.38;;;3.27;83.43
59419;BME280;45224;50.904;6.038;2023-03-04T05:45:07;100677.88;;;3.29;83.28
59419;BME280;45224;50.904;6.038;2023-03-04T05:46:38;100678.00;;;3.32;83.59
59419;BME280;45224;50.904;6.038;2023-03-04T05:48:09;100672.09;;;3.33;83.20
59419;BME280;45224;50.904;6.038;2023-03-04T05:49:40;100680.84;;;3.38;82.85
59419;BME280;45224;50.904;6.038;2023-03-04T05:51:11;100670.59;;;3.38;82.46
59419;BME280;45224;50.904;6.038;2023-03-04T05:52:42;100681.91;;;3.43;82.83
59419;BME280;45224;50.904;6.038;2023-03-04T05:54:13;100677.72;;;3.45;82.67
59419;BME280;45224;50.904;6.038;2023-03-04T05:55:47;100677.66;;;3.44;82.68
59419;BME280;45224;50.904;6.038;2023-03-04T05:57:18;100676.00;;;3.44;82.55
59419;BME280;45224;50.904;6.038;2023-03-04T05:58:48;100688.63;;;3.41;82.78
59419;BME280;45224;50.904;6.038;2023-03-04T06:00:19;100685.38;;;3.45;83.00
59419;BME280;45224;50.904;6.038;2023-03-04T06:01:49;100688.78;;;3.44;83.35
59419;BME280;45224;50.904;6.038;2023-03-04T06:03:21;100690.50;;;3.45;83.18
59419;BME280;45224;50.904;6.038;2023-03-04T06:04:51;100676.06;;;3.46;82.98
59419;BME280;45224;50.904;6.038;2023-03-04T06:06:22;100685.53;;;3.48;82.65
59419;BME280;45224;50.904;6.038;2023-03-04T06:07:52;100683.16;;;3.53;82.31
59419;BME280;45224;50.904;6.038;2023-03-04T06:09:23;100686.47;;;3.51;82.17
59419;BME280;45224;50.904;6.038;2023-03-04T06:10:55;100684.84;;;3.53;83.06
59419;BME280;45224;50.904;6.038;2023-03-04T06:12:26;100684.06;;;3.54;82.58
59419;BME280;45224;50.904;6.038;2023-03-04T06:13:58;100684.16;;;3.57;82.97
59419;BME280;45224;50.904;6.038;2023-03-04T06:15:28;100682.56;;;3.59;82.27
59419;BME280;45224;50.904;6.038;2023-03-04T06:16:59;100688.59;;;3.61;82.76
59419;BME280;45224;50.904;6.038;2023-03-04T06:18:29;100686.19;;;3.64;82.52
59419;BME280;45224;50.904;6.038;2023-03-04T06:20:00;100687.88;;;3.63;82.12
59419;BME280;45224;50.904;6.038;2023-03-04T06:21:30;100685.31;;;3.63;82.12
59419;BME280;45224;50.904;6.038;2023-03-04T06:23:01;100689.41;;;3.60;82.15
59419;BME280;45224;50.904;6.038;2023-03-04T06:24:32;100688.75;;;3.64;82.13
59419;BME280;45224;50.904;6.038;2023-03-04T06:26:03;100696.41;;;3.64;82.61
59419;BME280;45224;50.904;6.038;2023-03-04T06:27:34;100692.09;;;3.63;82.04
59419;BME280;45224;50.904;6.038;2023-03-04T06:29:05;100699.91;;;3.66;82.19
59419;BME280;45224;50.904;6.038;2023-03-04T06:30:36;100700.84;;;3.68;82.49
59419;BME280;45224;50.904;6.038;2023-03-04T06:32:06;100699.16;;;3.69;82.40
59419;BME280;45224;50.904;6.038;2023-03-04T06:33:37;100692.28;;;3.68;82.36
59419;BME280;45224;50.904;6.038;2023-03-04T06:35:07;100698.28;;;3.68;82.53
59419;BME280;45224;50.904;6.038;2023-03-04T06:36:38;100703.53;;;3.71;83.03
59419;BME280;45224;50.904;6.038;2023-03-04T06:38:08;100701.03;;;3.73;82.23
59419;BME280;45224;50.904;6.038;2023-03-04T06:39:39;100694.06;;;3.69;82.83
59419;BME280;45224;50.904;6.038;2023-03-04T06:41:11;100707.03;;;3.73;82.46
59419;BME280;45224;50.904;6.038;2023-03-04T06:42:42;100704.41;;;3.72;82.70
59419;BME280;45224;50.904;6.038;2023-03-04T06:44:13;100701.03;;;3.73;82.49
59419;BME280;45224;50.904;6.038;2023-03-04T06:45:43;100707.78;;;3.71;82.72
59419;BME280;45224;50.904;6.038;2023-03-04T06:47:14;100703.53;;;3.71;83.17
59419;BME280;45224;50.904;6.038;2023-03-04T06:48:45;100711.91;;;3.67;83.09
59419;BME280;45224;50.904;6.038;2023-03-04T06:50:16;100710.13;;;3.66;83.46
59419;BME280;45224;50.904;6.038;2023-03-04T06:51:47;100705.03;;;3.66;83.57
59419;BME280;45224;50.904;6.038;2023-03-04T06:53:17;100702.31;;;3.63;83.62
59419;BME280;45224;50.904;6.038;2023-03-04T06:54:48;100709.28;;;3.65;83.81
59419;BME280;45224;50.904;6.038;2023-03-04T06:56:18;100713.53;;;3.65;83.51
59419;BME280;45224;50.904;6.038;2023-03-04T06:57:49;100714.59;;;3.70;83.08
59419;BME280;45224;50.904;6.038;2023-03-04T06:59:19;100709.53;;;3.72;83.19
59419;BME280;45224;50.904;6.038;2023-03-04T07:00:50;100721.44;;;3.71;83.72
59419;BME280;45224;50.904;6.038;2023-03-04T07:02:21;100708.41;;;3.65;84.13
59419;BME280;45224;50.904;6.038;2023-03-04T07:03:52;100720.63;;;3.72;84.01
59419;BME280;45224;50.904;6.038;2023-03-04T07:05:22;100718.00;;;3.71;84.26
59419;BME280;45224;50.904;6.038;2023-03-04T07:06:53;100709.53;;;3.72;84.14
59419;BME280;45224;50.904;6.038;2023-03-04T07:08:24;100716.94;;;3.65;85.14
59419;BME280;45224;50.904;6.038;2023-03-04T07:09:54;100724.63;;;3.65;84.58
59419;BME280;45224;50.904;6.038;2023-03-04T07:11:25;100720.38;;;3.66;84.51
59419;BME280;45224;50.904;6.038;2023-03-04T07:12:56;100718.09;;;3.53;85.06
59419;BME280;45224;50.904;6.038;2023-03-04T07:14:26;100722.84;;;3.64;84.39
59419;BME280;45224;50.904;6.038;2023-03-04T07:15:58;100724.75;;;3.69;84.24
59419;BME280;45224;50.904;6.038;2023-03-04T07:17:29;100725.75;;;3.72;83.82
59419;BME280;45224;50.904;6.038;2023-03-04T07:19:00;100721.28;;;3.68;84.11
59419;BME280;45224;50.904;6.038;2023-03-04T07:20:31;100723.63;;;3.62;85.22
59419;BME280;45224;50.904;6.038;2023-03-04T07:22:01;100730.59;;;3.66;85.03
59419;BME280;45224;50.904;6.038;2023-03-04T07:23:32;100729.88;;;3.69;85.02
59419;BME280;45224;50.904;6.038;2023-03-04T07:25:04;100731.66;;;3.71;84.18
59419;BME280;45224;50.904;6.038;2023-03-04T07:26:34;100723.25;;;3.74;84.03
59419;BME280;45224;50.904;6.038;2023-03-04T07:28:07;100726.81;;;3.77;84.18
59419;BME280;45224;50.904;6.038;2023-03-04T07:29:37;100727.63;;;3.76;84.45
59419;BME280;45224;50.904;6.038;2023-03-04T07:31:30;100727.75;;;3.79;84.66
59419;BME280;45224;50.904;6.038;2023-03-04T07:33:01;100727.88;;;3.82;84.25
59419;BME280;45224;50.904;6.038;2023-03-04T07:34:31;100733.13;;;3.86;84.15
59419;BME280;45224;50.904;6.038;2023-03-04T07:36:02;100733.13;;;3.86;85.07
59419;BME280;45224;50.904;6.038;2023-03-04T07:37:33;100730.69;;;3.89;84.23
59419;BME280;45224;50.904;6.038;2023-03-04T07:39:04;100738.09;;;3.82;85.17
59419;BME280;45224;50.904;6.038;2023-03-04T07:40:35;100738.25;;;3.86;84.99
59419;BME280;45224;50.904;6.038;2023-03-04T07:42:06;100740.78;;;3.86;84.72
59419;BME280;45224;50.904;6.038;2023-03-04T07:43:42;100732.25;;;3.85;84.87
59419;BME280;45224;50.904;6.038;2023-03-04T07:45:13;100741.00;;;3.90;85.12
59419;BME280;45224;50.904;6.038;2023-03-04T07:46:43;100735.88;;;3.90;84.63
59419;BME280;45224;50.904;6.038;2023-03-04T07:48:14;100748.34;;;3.82;85.07
59419;BME280;45224;50.904;6.038;2023-03-04T07:49:44;100745.72;;;3.81;85.27
59419;BME280;45224;50.904;6.038;2023-03-04T07:51:17;100739.81;;;3.82;85.57
59419;BME280;45224;50.904;6.038;2023-03-04T07:52:48;100746.59;;;3.81;85.93
59419;BME280;45224;50.904;6.038;2023-03-04T07:54:22;100736.50;;;3.84;85.27
59419;BME280;45224;50.904;6.038;2023-03-04T07:55:53;100741.75;;;3.88;85.31
59419;BME280;45224;50.904;6.038;2023-03-04T07:57:23;100733.38;;;3.92;84.98
59419;BME280;45224;50.904;6.038;2023-03-04T07:58:54;100742.00;;;3.94;84.85
59419;BME280;45224;50.904;6.038;2023-03-04T08:00:25;100737.00;;;3.97;84.45
59419;BME280;45224;50.904;6.038;2023-03-04T08:01:56;100742.00;;;3.94;84.88
59419;BME280;45224;50.904;6.038;2023-03-04T08:03:27;100743.03;;;3.97;85.33
59419;BME280;45224;50.904;6.038;2023-03-04T08:04:58;100743.16;;;4.00;85.19
59419;BME280;45224;50.904;6.038;2023-03-04T08:06:30;100745.75;;;4.02;85.06
59419;BME280;45224;50.904;6.038;2023-03-04T08:08:00;100746.50;;;3.99;84.56